Atyrau, Kazakhstan
Current Conditions -  °F | °C
As of 7:00 PM on Thursday 30 Oct 2014 (Local Time) from UATG Reporting Station
Clear Clear  
Wind Chill: 34°   Ceiling: Unl
Heat Index: 39°   Visibility: 6mi
Dew Point: 21°   Wind: 7mph
Humidity: 49%   Direction: 100°E
Pressure: 30.42"   Gusts: NA
Location:  47.12°N, 51.88°E
Report Text: UATG 301500Z 10003MPS CAVOK 04/M06 Q1030 R14/CLRD70 NOSIG RMKQFE775/1033
Loading
Personal Weather Stations






























Interactive Weather Map
Tropical Storm Tracking
New forecast layout! Learn more

10-Day Weather Forecast

Advertisements
Track Severe Weather on mobile